sensor_id;sensor_type;location;lat;lon;timestamp;temperature;humidity
55648;DHT22;45266;48.756;9.246;2023-07-13T00:00:38;19.30;99.90
55648;DHT22;45266;48.756;9.246;2023-07-13T00:01:41;19.20;99.90
55648;DHT22;45266;48.756;9.246;2023-07-13T00:02:46;19.20;99.90
55648;DHT22;45266;48.756;9.246;2023-07-13T00:03:51;19.20;99.90
55648;DHT22;45266;48.756;9.246;2023-07-13T00:04:54;19.20;99.70
55648;DHT22;45266;48.756;9.246;2023-07-13T00:06:00;19.20;99.90
55648;DHT22;45266;48.756;9.246;2023-07-13T00:07:03;19.20;99.90
55648;DHT22;45266;48.756;9.246;2023-07-13T00:08:05;19.20;99.90
55648;DHT22;45266;48.756;9.246;2023-07-13T00:09:07;19.20;99.90
55648;DHT22;45266;48.756;9.246;2023-07-13T00:10:10;19.20;99.90
55648;DHT22;45266;48.756;9.246;2023-07-13T00:11:12;19.10;99.90
55648;DHT22;45266;48.756;9.246;2023-07-13T00:12:32;19.10;99.90
55648;DHT22;45266;48.756;9.246;2023-07-13T00:13:35;19.10;99.90
55648;DHT22;45266;48.756;9.246;2023-07-13T00:14:41;19.10;99.90
55648;DHT22;45266;48.756;9.246;2023-07-13T00:15:43;19.00;99.90
55648;DHT22;45266;48.756;9.246;2023-07-13T00:16:45;19.00;99.90
55648;DHT22;45266;48.756;9.246;2023-07-13T00:17:47;19.00;99.90
55648;DHT22;45266;48.756;9.246;2023-07-13T00:18:51;19.00;99.90
55648;DHT22;45266;48.756;9.246;2023-07-13T00:19:56;18.90;99.90
55648;DHT22;45266;48.756;9.246;2023-07-13T00:20:58;18.90;99.90
55648;DHT22;45266;48.756;9.246;2023-07-13T00:22:07;18.90;99.90
55648;DHT22;45266;48.756;9.246;2023-07-13T00:23:09;18.90;99.90
55648;DHT22;45266;48.756;9.246;2023-07-13T00:24:15;18.80;99.90
55648;DHT22;45266;48.756;9.246;2023-07-13T00:25:23;18.80;99.90
55648;DHT22;45266;48.756;9.246;2023-07-13T00:26:33;18.80;99.90
55648;DHT22;45266;48.756;9.246;2023-07-13T00:27:37;18.70;99.90
55648;DHT22;45266;48.756;9.246;2023-07-13T00:28:43;18.70;99.90
55648;DHT22;45266;48.756;9.246;2023-07-13T00:29:46;18.70;99.90
55648;DHT22;45266;48.756;9.246;2023-07-13T00:30:49;18.60;99.90
55648;DHT22;45266;48.756;9.246;2023-07-13T00:31:52;18.60;99.90
55648;DHT22;45266;48.756;9.246;2023-07-13T00:32:55;18.60;99.90
55648;DHT22;45266;48.756;9.246;2023-07-13T00:34:17;18.60;99.90
55648;DHT22;45266;48.756;9.246;2023-07-13T00:35:20;18.50;99.90
55648;DHT22;45266;48.756;9.246;2023-07-13T00:36:25;18.50;99.90
55648;DHT22;45266;48.756;9.246;2023-07-13T00:37:28;18.50;99.90
55648;DHT22;45266;48.756;9.246;2023-07-13T00:38:31;18.40;99.90
55648;DHT22;45266;48.756;9.246;2023-07-13T00:39:34;18.50;99.90
55648;DHT22;45266;48.756;9.246;2023-07-13T00:40:37;18.40;99.90
55648;DHT22;45266;48.756;9.246;2023-07-13T00:41:41;18.40;99.90
55648;DHT22;45266;48.756;9.246;2023-07-13T00:42:47;18.40;99.90
55648;DHT22;45266;48.756;9.246;2023-07-13T00:43:49;18.40;99.90
55648;DHT22;45266;48.756;9.246;2023-07-13T00:46:32;18.30;99.90
55648;DHT22;45266;48.756;9.246;2023-07-13T00:47:34;18.30;99.90
55648;DHT22;45266;48.756;9.246;2023-07-13T00:48:37;18.30;99.90
55648;DHT22;45266;48.756;9.246;2023-07-13T00:49:40;18.20;99.90
55648;DHT22;45266;48.756;9.246;2023-07-13T00:50:44;18.20;99.90
55648;DHT22;45266;48.756;9.246;2023-07-13T00:52:02;18.20;99.90
55648;DHT22;45266;48.756;9.246;2023-07-13T00:53:06;18.10;99.90
55648;DHT22;45266;48.756;9.246;2023-07-13T00:54:14;18.10;99.90
55648;DHT22;45266;48.756;9.246;2023-07-13T00:55:18;18.10;99.90
55648;DHT22;45266;48.756;9.246;2023-07-13T00:56:22;18.10;99.90
55648;DHT22;45266;48.756;9.246;2023-07-13T00:57:24;18.00;99.90
55648;DHT22;45266;48.756;9.246;2023-07-13T00:58:27;18.10;99.90
55648;DHT22;45266;48.756;9.246;2023-07-13T00:59:30;18.00;99.90
55648;DHT22;45266;48.756;9.246;2023-07-13T01:00:35;18.00;99.90
55648;DHT22;45266;48.756;9.246;2023-07-13T01:01:37;18.00;99.90
55648;DHT22;45266;48.756;9.246;2023-07-13T01:02:43;17.90;99.90
55648;DHT22;45266;48.756;9.246;2023-07-13T01:03:46;17.90;99.90
55648;DHT22;45266;48.756;9.246;2023-07-13T01:04:48;17.90;99.90
55648;DHT22;45266;48.756;9.246;2023-07-13T01:05:51;17.80;99.90
55648;DHT22;45266;48.756;9.246;2023-07-13T01:06:56;17.80;99.90
55648;DHT22;45266;48.756;9.246;2023-07-13T01:07:59;17.80;99.90
55648;DHT22;45266;48.756;9.246;2023-07-13T01:09:02;17.80;99.90
55648;DHT22;45266;48.756;9.246;2023-07-13T01:10:05;17.80;99.90
55648;DHT22;45266;48.756;9.246;2023-07-13T01:11:07;17.80;99.90
55648;DHT22;45266;48.756;9.246;2023-07-13T01:12:10;17.70;99.90
55648;DHT22;45266;48.756;9.246;2023-07-13T01:13:12;17.70;99.90
55648;DHT22;45266;48.756;9.246;2023-07-13T01:14:14;17.70;99.90
55648;DHT22;45266;48.756;9.246;2023-07-13T01:16:03;17.70;99.90
55648;DHT22;45266;48.756;9.246;2023-07-13T01:17:11;17.70;99.90
55648;DHT22;45266;48.756;9.246;2023-07-13T01:18:21;17.70;99.90
55648;DHT22;45266;48.756;9.246;2023-07-13T01:19:42;17.70;99.90
55648;DHT22;45266;48.756;9.246;2023-07-13T01:21:01;17.60;99.90
55648;DHT22;45266;48.756;9.246;2023-07-13T01:22:09;17.60;99.90
55648;DHT22;45266;48.756;9.246;2023-07-13T01:23:13;17.60;99.90
55648;DHT22;45266;48.756;9.246;2023-07-13T01:24:16;17.60;99.90
55648;DHT22;45266;48.756;9.246;2023-07-13T01:25:19;17.70;99.90
55648;DHT22;45266;48.756;9.246;2023-07-13T01:26:21;17.60;99.90
55648;DHT22;45266;48.756;9.246;2023-07-13T01:27:25;17.60;99.90
55648;DHT22;45266;48.756;9.246;2023-07-13T01:28:28;17.60;99.90
55648;DHT22;45266;48.756;9.246;2023-07-13T01:29:32;17.50;99.90
55648;DHT22;45266;48.756;9.246;2023-07-13T01:30:36;17.60;99.90
55648;DHT22;45266;48.756;9.246;2023-07-13T01:31:41;17.60;99.90
55648;DHT22;45266;48.756;9.246;2023-07-13T01:32:46;17.50;99.90
55648;DHT22;45266;48.756;9.246;2023-07-13T01:33:48;17.60;99.90
55648;DHT22;45266;48.756;9.246;2023-07-13T01:34:51;17.50;99.90
55648;DHT22;45266;48.756;9.246;2023-07-13T01:35:56;17.50;99.90
55648;DHT22;45266;48.756;9.246;2023-07-13T01:37:00;17.50;99.90
55648;DHT22;45266;48.756;9.246;2023-07-13T01:38:03;17.50;99.90
55648;DHT22;45266;48.756;9.246;2023-07-13T01:39:06;17.50;99.90
55648;DHT22;45266;48.756;9.246;2023-07-13T01:40:09;17.40;99.90
55648;DHT22;45266;48.756;9.246;2023-07-13T01:41:11;17.40;99.90
55648;DHT22;45266;48.756;9.246;2023-07-13T01:42:15;17.40;99.90
55648;DHT22;45266;48.756;9.246;2023-07-13T01:43:21;17.30;99.90
55648;DHT22;45266;48.756;9.246;2023-07-13T01:44:26;17.30;99.90
55648;DHT22;45266;48.756;9.246;2023-07-13T01:45:28;17.30;99.90
55648;DHT22;45266;48.756;9.246;2023-07-13T01:46:30;17.20;99.90
55648;DHT22;45266;48.756;9.246;2023-07-13T01:47:32;17.20;99.90
55648;DHT22;45266;48.756;9.246;2023-07-13T01:48:35;17.20;99.90
55648;DHT22;45266;48.756;9.246;2023-07-13T01:49:37;17.10;99.90
55648;DHT22;45266;48.756;9.246;2023-07-13T01:50:39;17.20;99.90
55648;DHT22;45266;48.756;9.246;2023-07-13T01:51:41;17.10;99.90
55648;DHT22;45266;48.756;9.246;2023-07-13T01:52:44;17.00;99.90
55648;DHT22;45266;48.756;9.246;2023-07-13T01:53:46;17.00;99.90
55648;DHT22;45266;48.756;9.246;2023-07-13T01:54:48;17.00;99.90
55648;DHT22;45266;48.756;9.246;2023-07-13T01:55:51;17.00;99.90
55648;DHT22;45266;48.756;9.246;2023-07-13T01:56:58;17.00;99.90
55648;DHT22;45266;48.756;9.246;2023-07-13T01:58:03;16.90;99.90
55648;DHT22;45266;48.756;9.246;2023-07-13T01:59:06;16.90;99.90
55648;DHT22;45266;48.756;9.246;2023-07-13T02:00:10;16.90;99.90
55648;DHT22;45266;48.756;9.246;2023-07-13T02:01:13;16.90;99.90
55648;DHT22;45266;48.756;9.246;2023-07-13T02:02:16;16.80;99.90
55648;DHT22;45266;48.756;9.246;2023-07-13T02:03:19;16.80;99.90
55648;DHT22;45266;48.756;9.246;2023-07-13T02:04:22;16.80;99.90
55648;DHT22;45266;48.756;9.246;2023-07-13T02:05:25;16.70;99.90
55648;DHT22;45266;48.756;9.246;2023-07-13T02:06:28;16.70;99.90
55648;DHT22;45266;48.756;9.246;2023-07-13T02:07:31;16.70;99.90
55648;DHT22;45266;48.756;9.246;2023-07-13T02:08:34;16.70;99.90
55648;DHT22;45266;48.756;9.246;2023-07-13T02:09:36;16.60;99.90
55648;DHT22;45266;48.756;9.246;2023-07-13T02:10:39;16.60;99.90
55648;DHT22;45266;48.756;9.246;2023-07-13T02:11:42;16.60;99.90
55648;DHT22;45266;48.756;9.246;2023-07-13T02:12:44;16.60;99.90
55648;DHT22;45266;48.756;9.246;2023-07-13T02:13:46;16.50;99.90
55648;DHT22;45266;48.756;9.246;2023-07-13T02:14:48;16.50;99.90
55648;DHT22;45266;48.756;9.246;2023-07-13T02:15:51;16.40;99.90
55648;DHT22;45266;48.756;9.246;2023-07-13T02:16:53;16.40;99.90
55648;DHT22;45266;48.756;9.246;2023-07-13T02:17:55;16.40;99.90
55648;DHT22;45266;48.756;9.246;2023-07-13T02:18:58;16.30;99.90
55648;DHT22;45266;48.756;9.246;2023-07-13T02:20:03;16.30;99.90
55648;DHT22;45266;48.756;9.246;2023-07-13T02:21:06;16.30;99.90
55648;DHT22;45266;48.756;9.246;2023-07-13T02:22:08;16.30;99.90
55648;DHT22;45266;48.756;9.246;2023-07-13T02:23:10;16.20;99.90
55648;DHT22;45266;48.756;9.246;2023-07-13T02:24:12;16.20;99.90
55648;DHT22;45266;48.756;9.246;2023-07-13T02:25:20;16.20;99.90
55648;DHT22;45266;48.756;9.246;2023-07-13T02:26:22;16.10;99.90
55648;DHT22;45266;48.756;9.246;2023-07-13T02:27:24;16.10;99.90
55648;DHT22;45266;48.756;9.246;2023-07-13T02:28:27;16.00;99.90
55648;DHT22;45266;48.756;9.246;2023-07-13T02:29:29;16.00;99.90
55648;DHT22;45266;48.756;9.246;2023-07-13T02:30:31;16.00;99.90
55648;DHT22;45266;48.756;9.246;2023-07-13T02:31:33;15.90;99.90
55648;DHT22;45266;48.756;9.246;2023-07-13T02:32:37;15.90;99.90
55648;DHT22;45266;48.756;9.246;2023-07-13T02:33:41;15.80;99.90
55648;DHT22;45266;48.756;9.246;2023-07-13T02:34:45;15.90;99.90
55648;DHT22;45266;48.756;9.246;2023-07-13T02:35:48;15.80;99.90
55648;DHT22;45266;48.756;9.246;2023-07-13T02:36:51;15.70;99.90
55648;DHT22;45266;48.756;9.246;2023-07-13T02:37:52;15.60;99.90
55648;DHT22;45266;48.756;9.246;2023-07-13T02:38:55;15.70;99.90
55648;DHT22;45266;48.756;9.246;2023-07-13T02:39:57;15.70;99.90
55648;DHT22;45266;48.756;9.246;2023-07-13T02:41:00;15.70;99.90
55648;DHT22;45266;48.756;9.246;2023-07-13T02:42:05;15.70;99.90
55648;DHT22;45266;48.756;9.246;2023-07-13T02:43:12;15.70;99.90
55648;DHT22;45266;48.756;9.246;2023-07-13T02:44:17;15.60;99.90
55648;DHT22;45266;48.756;9.246;2023-07-13T02:45:20;15.60;99.90
55648;DHT22;45266;48.756;9.246;2023-07-13T02:46:22;15.60;99.90
55648;DHT22;45266;48.756;9.246;2023-07-13T02:47:26;15.60;99.90
55648;DHT22;45266;48.756;9.246;2023-07-13T02:48:28;15.50;99.90
55648;DHT22;45266;48.756;9.246;2023-07-13T02:49:30;15.50;99.90
55648;DHT22;45266;48.756;9.246;2023-07-13T02:50:32;15.50;99.90
55648;DHT22;45266;48.756;9.246;2023-07-13T02:51:34;15.50;99.90
55648;DHT22;45266;48.756;9.246;2023-07-13T02:52:37;15.60;99.90
55648;DHT22;45266;48.756;9.246;2023-07-13T02:53:39;15.50;99.90
55648;DHT22;45266;48.756;9.246;2023-07-13T02:54:40;15.50;99.90
55648;DHT22;45266;48.756;9.246;2023-07-13T02:55:42;15.50;99.90
55648;DHT22;45266;48.756;9.246;2023-07-13T02:56:49;15.50;99.90
55648;DHT22;45266;48.756;9.246;2023-07-13T02:57:52;15.50;99.90
55648;DHT22;45266;48.756;9.246;2023-07-13T02:58:57;15.50;99.90
55648;DHT22;45266;48.756;9.246;2023-07-13T03:00:00;15.50;99.90
55648;DHT22;45266;48.756;9.246;2023-07-13T03:01:06;15.40;99.90
55648;DHT22;45266;48.756;9.246;2023-07-13T03:02:09;15.50;99.90
55648;DHT22;45266;48.756;9.246;2023-07-13T03:03:18;15.40;99.90
55648;DHT22;45266;48.756;9.246;2023-07-13T03:04:21;15.40;99.90
55648;DHT22;45266;48.756;9.246;2023-07-13T03:05:24;15.40;99.90
55648;DHT22;45266;48.756;9.246;2023-07-13T03:06:26;15.40;99.90
55648;DHT22;45266;48.756;9.246;2023-07-13T03:07:33;15.30;99.90
55648;DHT22;45266;48.756;9.246;2023-07-13T03:08:38;15.30;99.90
55648;DHT22;45266;48.756;9.246;2023-07-13T03:09:40;15.30;99.90
55648;DHT22;45266;48.756;9.246;2023-07-13T03:10:42;15.30;99.90
55648;DHT22;45266;48.756;9.246;2023-07-13T03:11:44;15.20;99.90
55648;DHT22;45266;48.756;9.246;2023-07-13T03:12:46;15.20;99.90
55648;DHT22;45266;48.756;9.246;2023-07-13T03:13:48;15.20;99.90
55648;DHT22;45266;48.756;9.246;2023-07-13T03:14:51;15.20;99.90
55648;DHT22;45266;48.756;9.246;2023-07-13T03:15:55;15.20;99.90
55648;DHT22;45266;48.756;9.246;2023-07-13T03:17:02;15.20;99.90
55648;DHT22;45266;48.756;9.246;2023-07-13T03:18:04;15.20;99.90
55648;DHT22;45266;48.756;9.246;2023-07-13T03:19:06;15.20;99.90
55648;DHT22;45266;48.756;9.246;2023-07-13T03:20:08;15.20;99.90
55648;DHT22;45266;48.756;9.246;2023-07-13T03:21:10;15.20;99.90
55648;DHT22;45266;48.756;9.246;2023-07-13T03:22:18;15.20;99.90
55648;DHT22;45266;48.756;9.246;2023-07-13T03:23:23;15.20;99.90
55648;DHT22;45266;48.756;9.246;2023-07-13T03:24:28;15.30;99.90
55648;DHT22;45266;48.756;9.246;2023-07-13T03:25:30;15.30;99.90
55648;DHT22;45266;48.756;9.246;2023-07-13T03:26:32;15.30;99.90
55648;DHT22;45266;48.756;9.246;2023-07-13T03:27:35;15.30;99.90
55648;DHT22;45266;48.756;9.246;2023-07-13T03:28:41;15.40;99.90
55648;DHT22;45266;48.756;9.246;2023-07-13T03:29:46;15.40;99.90
55648;DHT22;45266;48.756;9.246;2023-07-13T03:30:48;15.50;99.90
55648;DHT22;45266;48.756;9.246;2023-07-13T03:31:50;15.50;99.90
55648;DHT22;45266;48.756;9.246;2023-07-13T03:32:52;15.50;99.90
55648;DHT22;45266;48.756;9.246;2023-07-13T03:33:55;15.60;99.90
55648;DHT22;45266;48.756;9.246;2023-07-13T03:34:57;15.60;99.90
55648;DHT22;45266;48.756;9.246;2023-07-13T03:35:59;15.60;99.90
55648;DHT22;45266;48.756;9.246;2023-07-13T03:37:01;15.70;99.90
55648;DHT22;45266;48.756;9.246;2023-07-13T03:38:03;15.70;99.90
55648;DHT22;45266;48.756;9.246;2023-07-13T03:39:06;15.70;99.90
55648;DHT22;45266;48.756;9.246;2023-07-13T03:40:12;15.70;99.90
55648;DHT22;45266;48.756;9.246;2023-07-13T03:41:16;15.70;99.90
55648;DHT22;45266;48.756;9.246;2023-07-13T03:42:20;15.70;99.90
55648;DHT22;45266;48.756;9.246;2023-07-13T03:43:27;15.80;99.90
55648;DHT22;45266;48.756;9.246;2023-07-13T03:44:29;15.80;99.90
55648;DHT22;45266;48.756;9.246;2023-07-13T03:45:31;15.80;99.90
55648;DHT22;45266;48.756;9.246;2023-07-13T03:46:33;15.80;99.90
55648;DHT22;45266;48.756;9.246;2023-07-13T03:47:36;15.80;99.90
55648;DHT22;45266;48.756;9.246;2023-07-13T03:48:40;15.80;99.90
55648;DHT22;45266;48.756;9.246;2023-07-13T03:49:45;15.90;99.90
55648;DHT22;45266;48.756;9.246;2023-07-13T03:50:48;15.90;99.90
55648;DHT22;45266;48.756;9.246;2023-07-13T03:51:51;15.90;99.90
55648;DHT22;45266;48.756;9.246;2023-07-13T03:52:55;15.90;99.90
55648;DHT22;45266;48.756;9.246;2023-07-13T03:53:57;16.00;99.90
55648;DHT22;45266;48.756;9.246;2023-07-13T03:54:59;16.00;99.90
55648;DHT22;45266;48.756;9.246;2023-07-13T03:56:01;16.10;99.90
55648;DHT22;45266;48.756;9.246;2023-07-13T03:57:03;16.10;99.90
55648;DHT22;45266;48.756;9.246;2023-07-13T03:58:31;16.10;99.90
55648;DHT22;45266;48.756;9.246;2023-07-13T03:59:34;16.10;99.90
55648;DHT22;45266;48.756;9.246;2023-07-13T04:00:36;16.10;99.90
55648;DHT22;45266;48.756;9.246;2023-07-13T04:01:37;16.10;99.90
55648;DHT22;45266;48.756;9.246;2023-07-13T04:02:41;16.20;99.90
55648;DHT22;45266;48.756;9.246;2023-07-13T04:03:47;16.30;99.90
55648;DHT22;45266;48.756;9.246;2023-07-13T04:04:53;16.20;99.90
55648;DHT22;45266;48.756;9.246;2023-07-13T04:06:03;16.20;99.90
55648;DHT22;45266;48.756;9.246;2023-07-13T04:07:09;16.20;99.90
55648;DHT22;45266;48.756;9.246;2023-07-13T04:08:14;16.20;99.90
55648;DHT22;45266;48.756;9.246;2023-07-13T04:09:17;16.20;99.90
55648;DHT22;45266;48.756;9.246;2023-07-13T04:10:20;16.30;99.90
55648;DHT22;45266;48.756;9.246;2023-07-13T04:11:24;16.20;99.90
55648;DHT22;45266;48.756;9.246;2023-07-13T04:12:26;16.20;99.90
55648;DHT22;45266;48.756;9.246;2023-07-13T04:13:31;16.30;99.90
55648;DHT22;45266;48.756;9.246;2023-07-13T04:14:33;16.30;99.90
55648;DHT22;45266;48.756;9.246;2023-07-13T04:15:36;16.30;99.90
55648;DHT22;45266;48.756;9.246;2023-07-13T04:16:39;16.20;99.90
55648;DHT22;45266;48.756;9.246;2023-07-13T04:17:41;16.30;99.90
55648;DHT22;45266;48.756;9.246;2023-07-13T04:18:45;16.20;99.90
55648;DHT22;45266;48.756;9.246;2023-07-13T04:19:47;16.30;99.90
55648;DHT22;45266;48.756;9.246;2023-07-13T04:20:51;16.30;99.90
55648;DHT22;45266;48.756;9.246;2023-07-13T04:21:52;16.30;99.90
55648;DHT22;45266;48.756;9.246;2023-07-13T04:22:56;16.30;99.90
55648;DHT22;45266;48.756;9.246;2023-07-13T04:24:02;16.40;99.90
55648;DHT22;45266;48.756;9.246;2023-07-13T04:25:08;16.30;99.90
55648;DHT22;45266;48.756;9.246;2023-07-13T04:26:10;16.20;99.90
55648;DHT22;45266;48.756;9.246;2023-07-13T04:27:12;16.40;99.90
55648;DHT22;45266;48.756;9.246;2023-07-13T04:28:15;16.40;99.90
55648;DHT22;45266;48.756;9.246;2023-07-13T04:29:19;16.40;99.90
55648;DHT22;45266;48.756;9.246;2023-07-13T04:30:22;16.40;99.90
55648;DHT22;45266;48.756;9.246;2023-07-13T04:31:24;16.50;99.90
55648;DHT22;45266;48.756;9.246;2023-07-13T04:32:28;16.50;99.90
55648;DHT22;45266;48.756;9.246;2023-07-13T04:33:32;16.50;99.90
55648;DHT22;45266;48.756;9.246;2023-07-13T04:34:37;16.50;99.90
55648;DHT22;45266;48.756;9.246;2023-07-13T04:35:40;16.50;99.90
55648;DHT22;45266;48.756;9.246;2023-07-13T04:36:42;16.50;99.90
55648;DHT22;45266;48.756;9.246;2023-07-13T04:37:44;16.50;99.90
55648;DHT22;45266;48.756;9.246;2023-07-13T04:38:48;16.50;99.90
55648;DHT22;45266;48.756;9.246;2023-07-13T04:39:50;16.60;99.90
55648;DHT22;45266;48.756;9.246;2023-07-13T04:40:53;16.60;99.90
55648;DHT22;45266;48.756;9.246;2023-07-13T04:41:58;16.60;99.90
55648;DHT22;45266;48.756;9.246;2023-07-13T04:43:00;16.60;99.90
55648;DHT22;45266;48.756;9.246;2023-07-13T04:44:02;16.60;99.90
55648;DHT22;45266;48.756;9.246;2023-07-13T04:45:06;16.60;99.90
55648;DHT22;45266;48.756;9.246;2023-07-13T04:46:11;16.60;99.90
55648;DHT22;45266;48.756;9.246;2023-07-13T04:47:14;16.60;99.90
55648;DHT22;45266;48.756;9.246;2023-07-13T04:48:17;16.60;99.90
55648;DHT22;45266;48.756;9.246;2023-07-13T04:49:19;16.60;99.90
55648;DHT22;45266;48.756;9.246;2023-07-13T04:50:25;16.60;99.90
55648;DHT22;45266;48.756;9.246;2023-07-13T04:51:31;16.60;99.90
55648;DHT22;45266;48.756;9.246;2023-07-13T04:52:35;16.60;99.90
55648;DHT22;45266;48.756;9.246;2023-07-13T04:53:37;16.60;99.90
55648;DHT22;45266;48.756;9.246;2023-07-13T04:54:39;16.60;99.90
55648;DHT22;45266;48.756;9.246;2023-07-13T04:55:42;16.60;99.90
55648;DHT22;45266;48.756;9.246;2023-07-13T04:56:43;16.70;99.90
55648;DHT22;45266;48.756;9.246;2023-07-13T04:57:46;16.60;99.90
55648;DHT22;45266;48.756;9.246;2023-07-13T04:58:49;16.60;99.90
55648;DHT22;45266;48.756;9.246;2023-07-13T04:59:53;16.60;99.90
55648;DHT22;45266;48.756;9.246;2023-07-13T05:01:04;16.70;99.90
55648;DHT22;45266;48.756;9.246;2023-07-13T05:02:16;16.70;99.90
55648;DHT22;45266;48.756;9.246;2023-07-13T05:03:22;16.70;99.90
55648;DHT22;45266;48.756;9.246;2023-07-13T05:04:25;16.70;99.90
55648;DHT22;45266;48.756;9.246;2023-07-13T05:05:28;16.70;99.90
55648;DHT22;45266;48.756;9.246;2023-07-13T05:06:30;16.70;99.90
55648;DHT22;45266;48.756;9.246;2023-07-13T05:07:33;16.70;99.90
55648;DHT22;45266;48.756;9.246;2023-07-13T05:08:35;16.80;99.90
55648;DHT22;45266;48.756;9.246;2023-07-13T05:09:38;16.80;99.90
55648;DHT22;45266;48.756;9.246;2023-07-13T05:10:41;16.80;99.90
55648;DHT22;45266;48.756;9.246;2023-07-13T05:11:44;16.80;99.90
55648;DHT22;45266;48.756;9.246;2023-07-13T05:12:46;16.80;99.90
55648;DHT22;45266;48.756;9.246;2023-07-13T05:13:48;16.80;99.90
55648;DHT22;45266;48.756;9.246;2023-07-13T05:14:50;16.90;99.90
55648;DHT22;45266;48.756;9.246;2023-07-13T05:15:59;16.90;99.90
55648;DHT22;45266;48.756;9.246;2023-07-13T05:17:02;16.90;99.90
55648;DHT22;45266;48.756;9.246;2023-07-13T05:18:04;16.90;99.90
55648;DHT22;45266;48.756;9.246;2023-07-13T05:19:06;17.00;99.90
55648;DHT22;45266;48.756;9.246;2023-07-13T05:20:09;17.00;99.90
55648;DHT22;45266;48.756;9.246;2023-07-13T05:21:11;17.00;99.90
55648;DHT22;45266;48.756;9.246;2023-07-13T05:22:14;17.10;99.90
55648;DHT22;45266;48.756;9.246;2023-07-13T05:23:16;17.10;99.90
55648;DHT22;45266;48.756;9.246;2023-07-13T05:24:18;17.10;99.90
55648;DHT22;45266;48.756;9.246;2023-07-13T05:25:27;17.20;99.90
55648;DHT22;45266;48.756;9.246;2023-07-13T05:26:30;17.30;99.90
55648;DHT22;45266;48.756;9.246;2023-07-13T05:27:33;17.30;99.90
55648;DHT22;45266;48.756;9.246;2023-07-13T05:28:37;17.40;99.90
55648;DHT22;45266;48.756;9.246;2023-07-13T05:29:41;17.40;99.90
55648;DHT22;45266;48.756;9.246;2023-07-13T05:30:49;17.50;99.90
55648;DHT22;45266;48.756;9.246;2023-07-13T05:31:52;17.60;99.90
55648;DHT22;45266;48.756;9.246;2023-07-13T05:32:56;17.60;99.90
55648;DHT22;45266;48.756;9.246;2023-07-13T05:34:03;17.60;99.90
55648;DHT22;45266;48.756;9.246;2023-07-13T05:35:10;17.70;99.90
55648;DHT22;45266;48.756;9.246;2023-07-13T05:36:16;17.80;99.90
55648;DHT22;45266;48.756;9.246;2023-07-13T05:37:20;17.90;99.90
55648;DHT22;45266;48.756;9.246;2023-07-13T05:38:22;17.90;99.90
55648;DHT22;45266;48.756;9.246;2023-07-13T05:39:24;18.00;99.90
55648;DHT22;45266;48.756;9.246;2023-07-13T05:40:28;18.00;99.90
55648;DHT22;45266;48.756;9.246;2023-07-13T05:41:31;18.00;99.90
55648;DHT22;45266;48.756;9.246;2023-07-13T05:42:33;18.10;99.90
55648;DHT22;45266;48.756;9.246;2023-07-13T05:43:35;18.10;99.90
55648;DHT22;45266;48.756;9.246;2023-07-13T05:44:37;18.10;99.90
55648;DHT22;45266;48.756;9.246;2023-07-13T05:45:41;18.10;99.90
55648;DHT22;45266;48.756;9.246;2023-07-13T05:46:46;18.20;99.90
55648;DHT22;45266;48.756;9.246;2023-07-13T05:47:56;18.20;99.90
55648;DHT22;45266;48.756;9.246;2023-07-13T05:48:59;18.20;99.90
55648;DHT22;45266;48.756;9.246;2023-07-13T05:50:01;18.20;99.90
55648;DHT22;45266;48.756;9.246;2023-07-13T05:51:07;18.20;99.90
55648;DHT22;45266;48.756;9.246;2023-07-13T05:52:11;18.30;99.90
55648;DHT22;45266;48.756;9.246;2023-07-13T05:53:15;18.30;99.90
55648;DHT22;45266;48.756;9.246;2023-07-13T05:54:20;18.30;99.90
55648;DHT22;45266;48.756;9.246;2023-07-13T05:55:24;18.30;99.90
55648;DHT22;45266;48.756;9.246;2023-07-13T05:56:28;18.30;99.90
55648;DHT22;45266;48.756;9.246;2023-07-13T05:57:32;18.30;99.90
55648;DHT22;45266;48.756;9.246;2023-07-13T05:58:34;18.30;99.90
55648;DHT22;45266;48.756;9.246;2023-07-13T05:59:36;18.40;99.90
55648;DHT22;45266;48.756;9.246;2023-07-13T06:00:38;18.40;99.90
55648;DHT22;45266;48.756;9.246;2023-07-13T06:01:41;18.40;99.90
55648;DHT22;45266;48.756;9.246;2023-07-13T06:02:45;18.40;99.90
55648;DHT22;45266;48.756;9.246;2023-07-13T06:03:50;18.40;99.90
55648;DHT22;45266;48.756;9.246;2023-07-13T06:04:52;18.40;99.90
55648;DHT22;45266;48.756;9.246;2023-07-13T06:05:54;18.40;99.90
55648;DHT22;45266;48.756;9.246;2023-07-13T06:06:56;18.40;99.90
55648;DHT22;45266;48.756;9.246;2023-07-13T06:07:58;18.40;99.90
55648;DHT22;45266;48.756;9.246;2023-07-13T06:09:00;18.40;99.90
55648;DHT22;45266;48.756;9.246;2023-07-13T06:10:03;18.40;99.90
55648;DHT22;45266;48.756;9.246;2023-07-13T06:11:21;18.40;99.90
55648;DHT22;45266;48.756;9.246;2023-07-13T06:12:27;18.50;99.90
55648;DHT22;45266;48.756;9.246;2023-07-13T06:13:30;18.50;99.90
55648;DHT22;45266;48.756;9.246;2023-07-13T06:14:34;18.50;99.90
55648;DHT22;45266;48.756;9.246;2023-07-13T06:15:41;18.50;99.90
55648;DHT22;45266;48.756;9.246;2023-07-13T06:16:46;18.60;99.90
55648;DHT22;45266;48.756;9.246;2023-07-13T06:17:49;18.60;99.90
55648;DHT22;45266;48.756;9.246;2023-07-13T06:18:51;18.80;99.90
55648;DHT22;45266;48.756;9.246;2023-07-13T06:19:53;18.80;99.90
55648;DHT22;45266;48.756;9.246;2023-07-13T06:20:56;19.00;99.90
55648;DHT22;45266;48.756;9.246;2023-07-13T06:21:59;19.10;99.90
55648;DHT22;45266;48.756;9.246;2023-07-13T06:23:05;19.20;99.90
55648;DHT22;45266;48.756;9.246;2023-07-13T06:24:10;19.30;99.90
55648;DHT22;45266;48.756;9.246;2023-07-13T06:25:13;19.30;99.90
55648;DHT22;45266;48.756;9.246;2023-07-13T06:26:18;19.40;96.70
55648;DHT22;45266;48.756;9.246;2023-07-13T06:27:22;19.50;91.90
55648;DHT22;45266;48.756;9.246;2023-07-13T06:28:25;19.50;88.80
55648;DHT22;45266;48.756;9.246;2023-07-13T06:29:27;19.50;89.60
55648;DHT22;45266;48.756;9.246;2023-07-13T06:30:29;19.60;91.60
55648;DHT22;45266;48.756;9.246;2023-07-13T06:31:31;19.60;90.40
55648;DHT22;45266;48.756;9.246;2023-07-13T06:32:34;19.80;90.00
55648;DHT22;45266;48.756;9.246;2023-07-13T06:33:42;19.90;87.50
55648;DHT22;45266;48.756;9.246;2023-07-13T06:34:46;20.00;84.00
55648;DHT22;45266;48.756;9.246;2023-07-13T06:35:50;20.10;84.80
55648;DHT22;45266;48.756;9.246;2023-07-13T06:36:55;20.10;85.60
55648;DHT22;45266;48.756;9.246;2023-07-13T06:37:59;20.20;77.40
55648;DHT22;45266;48.756;9.246;2023-07-13T06:39:02;20.20;75.30
55648;DHT22;45266;48.756;9.246;2023-07-13T06:40:04;20.20;76.80
55648;DHT22;45266;48.756;9.246;2023-07-13T06:41:08;20.30;76.30
55648;DHT22;45266;48.756;9.246;2023-07-13T06:42:11;20.30;75.50
55648;DHT22;45266;48.756;9.246;2023-07-13T06:43:15;20.40;77.60
55648;DHT22;45266;48.756;9.246;2023-07-13T06:44:17;20.50;77.70
55648;DHT22;45266;48.756;9.246;2023-07-13T06:45:19;20.60;80.00